Strona główna
METAR-TAF:

METAR-TAF

Lotnisko :

Valley, Walia

Szerokość geograficzna: 53-15N, Długość geograficzna: 004-32W, wysokość: 1 m

Aktualna obserwacja pogody

Raport powstał 29 minut temu, godzina 12:50 UTC
Wiatr 13 kt od południowo-południowy wschód
Temperatura 14°C
Wilgotność 67%
Ciśnienie 997 hPa
Widzialność 10 km lub więcej

METAR: EGOV 151250Z AUTO 16013KT 9999 BKN050/// 14/08 Q0997

czas: 14:19 (13:19 UTC)

Prognoza

Raport powstał 23 godziny i 51 minut temu, godzina 13:28 UTC
Prognoza ważna od 14 godzina 15 UTC do 14 godzina 18 UTC
Wiatr 8 kt od południowo-południowy zachód
Widzialność 10 km lub więcej
Mało chmury na wysokości 1900 ft
Prawdopodobieństwo 30% :
Przejściowo
od 14 godzina 15 UTC do 14 godzina 18 UTC
Rozproszone chmury na wysokości 1700 ft

TAF: EGOV 141328Z 1415/1418 21008KT 9999 FEW019 PROB30 TEMPO 1415/1418 SCT017

Obserwacja i prognoza pogody dla ponad 4000 lotnisk (raport METAR i TAF).

Dostępne stacje oznaczono żółtymi i czerwonymi punktami na mapie.

Najedź kursorem aby zobaczyć nazwę stacji.

Kliknij aby zobaczyć obserwacje i prognozy pogody.

Aby zmienić mapę: kliknij na zielony przycisk z czarnym krzyżykiem, aby powiększyć; na zielony przycisk z myślnikiem, aby pomniejszyć; na zielone strzałki, aby przejść do map sąsiednich.


METAR-TAF: